Orbital elements of FENGYUN 1C DEB
| Launched | 9 May 1999 |
| Flight ended | – |
| Launch site | Taiyuan Space Center, PRC |
| Owner | People's Republic of China |
| NORAD ID | 29809 |
| Date fetched |
Epoch osculation |
Inc. [°] |
Ecc. | RA asc node [hr] |
Arg Peri. [°] |
Mean anom [°] |
Mean motion [rev/day] |
Abs. mag |
| Date fetched |
Epoch osculation |
Inc. [°] |
Ecc. | RA asc node [hr] |
Arg Peri. [°] |
Mean anom [°] |
Mean motion [rev/day] |
Abs. mag |
| 2026 May 08 17:57 | 2026 May 04 16:45:00 | 98.8807 | 0.01144 | 6.6652 | 281.3398 | 263.5332 | 14.46935 | – |
| 2026 May 07 17:58 | 2026 May 04 16:45:00 | 98.8807 | 0.01144 | 6.6652 | 281.3398 | 263.5332 | 14.46935 | – |
| 2026 May 06 17:57 | 2026 May 04 16:45:00 | 98.8807 | 0.01144 | 6.6652 | 281.3398 | 263.5332 | 14.46935 | – |
| 2026 May 05 17:57 | 2026 May 04 16:45:00 | 98.8807 | 0.01144 | 6.6652 | 281.3398 | 263.5332 | 14.46935 | – |
| 2026 May 04 17:57 | 2026 Apr 30 11:13:41 | 98.8802 | 0.01145 | 6.3694 | 294.1425 | 263.5332 | 14.46935 | – |
| 2026 May 03 17:57 | 2026 Apr 30 11:13:41 | 98.8802 | 0.01145 | 6.3694 | 294.1425 | 263.5332 | 14.46935 | – |
| 2026 May 02 17:57 | 2026 Apr 30 11:13:41 | 98.8802 | 0.01145 | 6.3694 | 294.1425 | 263.5332 | 14.46935 | – |
| 2026 May 01 17:56 | 2026 Apr 30 11:13:41 | 98.8802 | 0.01145 | 6.3694 | 294.1425 | 263.5332 | 14.46935 | – |
| 2026 Apr 30 17:56 | 2026 Apr 30 11:13:41 | 98.8802 | 0.01145 | 6.3694 | 294.1425 | 263.5332 | 14.46935 | – |
| 2026 Apr 29 17:57 | 2026 Apr 24 09:21:54 | 98.8795 | 0.01147 | 5.9445 | 312.5078 | 263.5332 | 14.46935 | – |
| 2026 Apr 28 17:56 | 2026 Apr 24 09:21:54 | 98.8795 | 0.01147 | 5.9445 | 312.5078 | 263.5332 | 14.46935 | – |
| 2026 Apr 27 17:58 | 2026 Apr 24 09:21:54 | 98.8795 | 0.01147 | 5.9445 | 312.5078 | 263.5332 | 14.46935 | – |
| 2026 Apr 26 17:58 | 2026 Apr 24 09:21:54 | 98.8795 | 0.01147 | 5.9445 | 312.5078 | 263.5332 | 14.46935 | – |
| 2026 Apr 25 17:58 | 2026 Apr 24 09:21:54 | 98.8795 | 0.01147 | 5.9445 | 312.5078 | 263.5332 | 14.46935 | – |
| 2026 Apr 24 17:59 | 2026 Apr 24 09:21:54 | 98.8795 | 0.01147 | 5.9445 | 312.5078 | 263.5332 | 14.46935 | – |
| 2026 Apr 23 17:57 | 2026 Apr 19 04:11:54 | 98.8793 | 0.01150 | 5.5800 | 328.2214 | 263.5332 | 14.46935 | – |
| 2026 Apr 22 17:57 | 2026 Apr 19 04:11:54 | 98.8793 | 0.01150 | 5.5800 | 328.2214 | 263.5332 | 14.46935 | – |
| 2026 Apr 21 17:57 | 2026 Apr 19 04:11:54 | 98.8793 | 0.01150 | 5.5800 | 328.2214 | 263.5332 | 14.46935 | – |
| 2026 Apr 20 17:57 | 2026 Apr 19 04:11:54 | 98.8793 | 0.01150 | 5.5800 | 328.2214 | 263.5332 | 14.46935 | – |
| 2026 Apr 19 17:58 | 2026 Apr 19 04:11:54 | 98.8793 | 0.01150 | 5.5800 | 328.2214 | 263.5332 | 14.46935 | – |
| 2026 Apr 18 17:56 | 2026 Apr 12 21:15:02 | 98.8784 | 0.01154 | 5.1403 | 347.1217 | 263.5332 | 14.46935 | – |
| 2026 Apr 16 17:57 | 2026 Apr 12 21:15:02 | 98.8784 | 0.01154 | 5.1403 | 347.1217 | 263.5332 | 14.46935 | – |
| 2026 Apr 14 17:57 | 2026 Apr 12 21:15:02 | 98.8784 | 0.01154 | 5.1403 | 347.1217 | 263.5332 | 14.46935 | – |
| 2026 Apr 13 17:57 | 2026 Apr 12 21:15:02 | 98.8784 | 0.01154 | 5.1403 | 347.1217 | 263.5332 | 14.46935 | – |
| 2026 Apr 12 17:57 | 2026 Apr 08 11:27:01 | 98.8781 | 0.01157 | 4.8322 | 0.3198 | 263.5332 | 14.46935 | – |
| 2026 Apr 11 17:57 | 2026 Apr 08 11:27:01 | 98.8781 | 0.01157 | 4.8322 | 0.3198 | 263.5332 | 14.46935 | – |